sensor_id;sensor_type;location;lat;lon;timestamp;P1;durP1;ratioP1;P2;durP2;ratioP2
3293;SDS011;1659;51.470;6.770;2022-08-21T00:00:48;17.00;;;8.50;;
3293;SDS011;1659;51.470;6.770;2022-08-21T00:03:15;13.50;;;7.50;;
3293;SDS011;1659;51.470;6.770;2022-08-21T00:05:42;11.93;;;6.63;;
3293;SDS011;1659;51.470;6.770;2022-08-21T00:08:13;13.37;;;8.53;;
3293;SDS011;1659;51.470;6.770;2022-08-21T00:10:40;14.03;;;7.70;;
3293;SDS011;1659;51.470;6.770;2022-08-21T00:13:07;16.93;;;8.00;;
3293;SDS011;1659;51.470;6.770;2022-08-21T00:15:35;15.83;;;8.90;;
3293;SDS011;1659;51.470;6.770;2022-08-21T00:18:03;11.60;;;7.60;;
3293;SDS011;1659;51.470;6.770;2022-08-21T00:20:31;16.20;;;7.23;;
3293;SDS011;1659;51.470;6.770;2022-08-21T00:22:59;17.00;;;8.77;;
3293;SDS011;1659;51.470;6.770;2022-08-21T00:25:28;13.27;;;8.50;;
3293;SDS011;1659;51.470;6.770;2022-08-21T00:27:55;10.80;;;8.30;;
3293;SDS011;1659;51.470;6.770;2022-08-21T00:30:22;13.87;;;8.37;;
3293;SDS011;1659;51.470;6.770;2022-08-21T00:32:50;10.37;;;7.73;;
3293;SDS011;1659;51.470;6.770;2022-08-21T00:35:20;17.40;;;9.10;;
3293;SDS011;1659;51.470;6.770;2022-08-21T00:37:48;16.30;;;8.37;;
3293;SDS011;1659;51.470;6.770;2022-08-21T00:40:16;18.10;;;9.37;;
3293;SDS011;1659;51.470;6.770;2022-08-21T00:42:46;20.50;;;9.17;;
3293;SDS011;1659;51.470;6.770;2022-08-21T00:45:14;15.80;;;9.80;;
3293;SDS011;1659;51.470;6.770;2022-08-21T00:47:41;15.50;;;9.03;;
3293;SDS011;1659;51.470;6.770;2022-08-21T00:50:08;13.47;;;8.60;;
3293;SDS011;1659;51.470;6.770;2022-08-21T00:52:36;13.73;;;9.60;;
3293;SDS011;1659;51.470;6.770;2022-08-21T00:55:04;15.00;;;8.23;;
3293;SDS011;1659;51.470;6.770;2022-08-21T00:57:33;16.80;;;8.40;;
3293;SDS011;1659;51.470;6.770;2022-08-21T01:00:07;14.27;;;9.27;;
3293;SDS011;1659;51.470;6.770;2022-08-21T01:02:38;17.30;;;9.33;;
3293;SDS011;1659;51.470;6.770;2022-08-21T01:05:05;15.57;;;8.97;;
3293;SDS011;1659;51.470;6.770;2022-08-21T01:07:32;13.63;;;9.33;;
3293;SDS011;1659;51.470;6.770;2022-08-21T01:10:00;15.50;;;8.73;;
3293;SDS011;1659;51.470;6.770;2022-08-21T01:12:27;11.70;;;9.30;;
3293;SDS011;1659;51.470;6.770;2022-08-21T01:14:53;14.90;;;9.73;;
3293;SDS011;1659;51.470;6.770;2022-08-21T01:17:21;13.80;;;10.50;;
3293;SDS011;1659;51.470;6.770;2022-08-21T01:19:48;17.10;;;10.13;;
3293;SDS011;1659;51.470;6.770;2022-08-21T01:22:16;15.53;;;9.40;;
3293;SDS011;1659;51.470;6.770;2022-08-21T01:24:44;14.27;;;9.33;;
3293;SDS011;1659;51.470;6.770;2022-08-21T01:27:11;13.17;;;9.93;;
3293;SDS011;1659;51.470;6.770;2022-08-21T01:29:38;13.77;;;9.03;;
3293;SDS011;1659;51.470;6.770;2022-08-21T01:32:10;17.00;;;9.77;;
3293;SDS011;1659;51.470;6.770;2022-08-21T01:34:40;12.87;;;9.60;;
3293;SDS011;1659;51.470;6.770;2022-08-21T01:37:08;13.43;;;10.40;;
3293;SDS011;1659;51.470;6.770;2022-08-21T01:39:36;17.47;;;10.77;;
3293;SDS011;1659;51.470;6.770;2022-08-21T01:42:03;17.63;;;10.20;;
3293;SDS011;1659;51.470;6.770;2022-08-21T01:44:31;27.33;;;10.90;;
3293;SDS011;1659;51.470;6.770;2022-08-21T01:46:59;15.83;;;10.43;;
3293;SDS011;1659;51.470;6.770;2022-08-21T01:49:27;16.60;;;11.10;;
3293;SDS011;1659;51.470;6.770;2022-08-21T01:51:53;13.90;;;10.80;;
3293;SDS011;1659;51.470;6.770;2022-08-21T01:54:20;17.90;;;11.43;;
3293;SDS011;1659;51.470;6.770;2022-08-21T01:56:50;16.87;;;11.20;;
3293;SDS011;1659;51.470;6.770;2022-08-21T01:59:18;17.67;;;11.67;;
3293;SDS011;1659;51.470;6.770;2022-08-21T02:01:45;18.60;;;12.10;;
3293;SDS011;1659;51.470;6.770;2022-08-21T02:04:12;18.03;;;11.70;;
3293;SDS011;1659;51.470;6.770;2022-08-21T02:06:39;17.50;;;13.60;;
3293;SDS011;1659;51.470;6.770;2022-08-21T02:09:06;16.00;;;11.53;;
3293;SDS011;1659;51.470;6.770;2022-08-21T02:11:34;17.53;;;12.03;;
3293;SDS011;1659;51.470;6.770;2022-08-21T02:14:02;18.37;;;12.03;;
3293;SDS011;1659;51.470;6.770;2022-08-21T02:16:29;20.60;;;12.50;;
3293;SDS011;1659;51.470;6.770;2022-08-21T02:18:56;19.20;;;12.73;;
3293;SDS011;1659;51.470;6.770;2022-08-21T02:21:22;23.93;;;12.30;;
3293;SDS011;1659;51.470;6.770;2022-08-21T02:23:49;17.70;;;12.70;;
3293;SDS011;1659;51.470;6.770;2022-08-21T02:26:15;20.77;;;12.43;;
3293;SDS011;1659;51.470;6.770;2022-08-21T02:28:42;18.77;;;12.70;;
3293;SDS011;1659;51.470;6.770;2022-08-21T02:31:10;14.37;;;11.57;;
3293;SDS011;1659;51.470;6.770;2022-08-21T02:33:37;15.87;;;12.90;;
3293;SDS011;1659;51.470;6.770;2022-08-21T02:36:05;18.70;;;12.87;;
3293;SDS011;1659;51.470;6.770;2022-08-21T02:38:34;20.77;;;13.20;;
3293;SDS011;1659;51.470;6.770;2022-08-21T02:41:03;19.53;;;13.23;;
3293;SDS011;1659;51.470;6.770;2022-08-21T02:43:30;16.47;;;12.07;;
3293;SDS011;1659;51.470;6.770;2022-08-21T02:45:57;25.43;;;13.70;;
3293;SDS011;1659;51.470;6.770;2022-08-21T02:48:26;23.40;;;13.20;;
3293;SDS011;1659;51.470;6.770;2022-08-21T02:50:55;15.47;;;12.70;;
3293;SDS011;1659;51.470;6.770;2022-08-21T02:53:23;20.33;;;13.83;;
3293;SDS011;1659;51.470;6.770;2022-08-21T02:55:51;19.10;;;14.40;;
3293;SDS011;1659;51.470;6.770;2022-08-21T02:58:19;16.67;;;12.67;;
3293;SDS011;1659;51.470;6.770;2022-08-21T03:00:48;16.47;;;12.57;;
3293;SDS011;1659;51.470;6.770;2022-08-21T03:03:16;18.90;;;12.50;;
3293;SDS011;1659;51.470;6.770;2022-08-21T03:05:44;16.93;;;12.07;;
3293;SDS011;1659;51.470;6.770;2022-08-21T03:08:11;21.50;;;12.60;;
3293;SDS011;1659;51.470;6.770;2022-08-21T03:10:40;21.03;;;12.50;;
3293;SDS011;1659;51.470;6.770;2022-08-21T03:13:09;22.43;;;14.40;;
3293;SDS011;1659;51.470;6.770;2022-08-21T03:15:36;16.23;;;11.70;;
3293;SDS011;1659;51.470;6.770;2022-08-21T03:18:05;20.43;;;12.97;;
3293;SDS011;1659;51.470;6.770;2022-08-21T03:20:33;21.53;;;13.10;;
3293;SDS011;1659;51.470;6.770;2022-08-21T03:23:02;17.50;;;12.70;;
3293;SDS011;1659;51.470;6.770;2022-08-21T03:25:30;17.10;;;13.67;;
3293;SDS011;1659;51.470;6.770;2022-08-21T03:27:58;19.67;;;13.83;;
3293;SDS011;1659;51.470;6.770;2022-08-21T03:30:24;16.17;;;12.97;;
3293;SDS011;1659;51.470;6.770;2022-08-21T03:32:51;16.07;;;12.93;;
3293;SDS011;1659;51.470;6.770;2022-08-21T03:35:19;21.10;;;14.13;;
3293;SDS011;1659;51.470;6.770;2022-08-21T03:37:46;20.17;;;13.37;;
3293;SDS011;1659;51.470;6.770;2022-08-21T03:40:15;21.97;;;14.17;;
3293;SDS011;1659;51.470;6.770;2022-08-21T03:42:43;19.37;;;14.00;;
3293;SDS011;1659;51.470;6.770;2022-08-21T03:45:12;17.47;;;12.80;;
3293;SDS011;1659;51.470;6.770;2022-08-21T03:47:49;17.57;;;13.27;;
3293;SDS011;1659;51.470;6.770;2022-08-21T03:50:17;21.40;;;13.60;;
3293;SDS011;1659;51.470;6.770;2022-08-21T03:52:43;22.30;;;13.03;;
3293;SDS011;1659;51.470;6.770;2022-08-21T03:55:10;20.00;;;13.23;;
3293;SDS011;1659;51.470;6.770;2022-08-21T03:57:38;20.20;;;13.00;;
3293;SDS011;1659;51.470;6.770;2022-08-21T04:00:05;19.80;;;13.17;;
3293;SDS011;1659;51.470;6.770;2022-08-21T04:02:35;18.00;;;12.67;;
3293;SDS011;1659;51.470;6.770;2022-08-21T04:05:02;17.90;;;13.30;;
3293;SDS011;1659;51.470;6.770;2022-08-21T04:07:29;16.37;;;13.27;;
3293;SDS011;1659;51.470;6.770;2022-08-21T04:09:55;18.03;;;13.77;;
3293;SDS011;1659;51.470;6.770;2022-08-21T04:12:22;25.20;;;14.43;;
3293;SDS011;1659;51.470;6.770;2022-08-21T04:14:50;21.50;;;15.40;;
3293;SDS011;1659;51.470;6.770;2022-08-21T04:17:17;20.20;;;14.67;;
3293;SDS011;1659;51.470;6.770;2022-08-21T04:19:44;30.73;;;16.80;;
3293;SDS011;1659;51.470;6.770;2022-08-21T04:22:11;28.20;;;17.37;;
3293;SDS011;1659;51.470;6.770;2022-08-21T04:24:37;30.13;;;17.60;;
3293;SDS011;1659;51.470;6.770;2022-08-21T04:27:04;20.77;;;15.47;;
3293;SDS011;1659;51.470;6.770;2022-08-21T04:29:30;28.47;;;16.00;;
3293;SDS011;1659;51.470;6.770;2022-08-21T04:31:58;20.57;;;16.50;;
3293;SDS011;1659;51.470;6.770;2022-08-21T04:34:25;26.03;;;16.53;;
3293;SDS011;1659;51.470;6.770;2022-08-21T04:36:52;19.00;;;15.20;;
3293;SDS011;1659;51.470;6.770;2022-08-21T04:39:18;26.50;;;16.10;;
3293;SDS011;1659;51.470;6.770;2022-08-21T04:41:45;30.00;;;15.30;;
3293;SDS011;1659;51.470;6.770;2022-08-21T04:44:11;21.33;;;16.10;;
3293;SDS011;1659;51.470;6.770;2022-08-21T04:46:38;29.90;;;15.60;;
3293;SDS011;1659;51.470;6.770;2022-08-21T04:49:06;27.30;;;17.20;;
3293;SDS011;1659;51.470;6.770;2022-08-21T04:51:33;28.10;;;18.03;;
3293;SDS011;1659;51.470;6.770;2022-08-21T04:54:06;23.83;;;16.50;;
3293;SDS011;1659;51.470;6.770;2022-08-21T04:56:36;23.10;;;16.90;;
3293;SDS011;1659;51.470;6.770;2022-08-21T04:59:06;29.10;;;18.13;;
3293;SDS011;1659;51.470;6.770;2022-08-21T05:01:39;24.90;;;16.67;;
3293;SDS011;1659;51.470;6.770;2022-08-21T05:04:10;25.47;;;16.23;;
3293;SDS011;1659;51.470;6.770;2022-08-21T05:06:38;29.90;;;17.43;;
3293;SDS011;1659;51.470;6.770;2022-08-21T05:09:07;29.10;;;18.63;;
3293;SDS011;1659;51.470;6.770;2022-08-21T05:11:35;23.23;;;16.80;;
3293;SDS011;1659;51.470;6.770;2022-08-21T05:14:03;28.20;;;17.17;;
3293;SDS011;1659;51.470;6.770;2022-08-21T05:16:29;26.83;;;17.27;;
3293;SDS011;1659;51.470;6.770;2022-08-21T05:18:56;35.03;;;18.80;;
3293;SDS011;1659;51.470;6.770;2022-08-21T05:21:24;29.60;;;18.40;;
3293;SDS011;1659;51.470;6.770;2022-08-21T05:23:51;26.40;;;18.10;;
3293;SDS011;1659;51.470;6.770;2022-08-21T05:26:18;26.87;;;18.37;;
3293;SDS011;1659;51.470;6.770;2022-08-21T05:28:44;26.80;;;17.87;;
3293;SDS011;1659;51.470;6.770;2022-08-21T05:31:11;27.53;;;18.00;;
3293;SDS011;1659;51.470;6.770;2022-08-21T05:33:37;27.10;;;18.60;;
3293;SDS011;1659;51.470;6.770;2022-08-21T05:36:04;28.33;;;17.90;;
3293;SDS011;1659;51.470;6.770;2022-08-21T05:38:32;28.33;;;19.53;;
3293;SDS011;1659;51.470;6.770;2022-08-21T05:40:59;27.73;;;20.37;;
3293;SDS011;1659;51.470;6.770;2022-08-21T05:43:25;30.17;;;19.10;;
3293;SDS011;1659;51.470;6.770;2022-08-21T05:45:52;28.43;;;20.90;;
3293;SDS011;1659;51.470;6.770;2022-08-21T05:48:19;23.30;;;17.83;;
3293;SDS011;1659;51.470;6.770;2022-08-21T05:50:48;30.50;;;19.43;;
3293;SDS011;1659;51.470;6.770;2022-08-21T05:53:17;29.07;;;18.07;;
3293;SDS011;1659;51.470;6.770;2022-08-21T05:55:46;27.83;;;18.60;;
3293;SDS011;1659;51.470;6.770;2022-08-21T05:58:13;30.50;;;17.23;;
3293;SDS011;1659;51.470;6.770;2022-08-21T06:00:42;35.73;;;17.50;;
3293;SDS011;1659;51.470;6.770;2022-08-21T06:03:10;21.00;;;16.23;;
3293;SDS011;1659;51.470;6.770;2022-08-21T06:05:37;26.13;;;16.20;;
3293;SDS011;1659;51.470;6.770;2022-08-21T06:08:04;25.63;;;14.40;;
3293;SDS011;1659;51.470;6.770;2022-08-21T06:10:31;16.57;;;12.77;;
3293;SDS011;1659;51.470;6.770;2022-08-21T06:12:59;17.30;;;13.40;;
3293;SDS011;1659;51.470;6.770;2022-08-21T06:15:25;18.13;;;12.10;;
3293;SDS011;1659;51.470;6.770;2022-08-21T06:17:52;18.73;;;12.93;;
3293;SDS011;1659;51.470;6.770;2022-08-21T06:20:18;19.73;;;11.53;;
3293;SDS011;1659;51.470;6.770;2022-08-21T06:22:45;13.87;;;11.57;;
3293;SDS011;1659;51.470;6.770;2022-08-21T06:25:12;18.13;;;11.73;;
3293;SDS011;1659;51.470;6.770;2022-08-21T06:27:38;18.27;;;10.30;;
3293;SDS011;1659;51.470;6.770;2022-08-21T06:30:07;16.33;;;10.20;;
3293;SDS011;1659;51.470;6.770;2022-08-21T06:32:35;14.27;;;9.90;;
3293;SDS011;1659;51.470;6.770;2022-08-21T06:35:02;11.37;;;8.90;;
3293;SDS011;1659;51.470;6.770;2022-08-21T06:37:30;21.60;;;10.23;;
3293;SDS011;1659;51.470;6.770;2022-08-21T06:39:56;14.53;;;10.27;;
3293;SDS011;1659;51.470;6.770;2022-08-21T06:42:23;14.57;;;9.33;;
3293;SDS011;1659;51.470;6.770;2022-08-21T06:44:50;9.27;;;8.33;;
3293;SDS011;1659;51.470;6.770;2022-08-21T06:47:18;10.83;;;8.87;;
3293;SDS011;1659;51.470;6.770;2022-08-21T06:49:44;11.20;;;8.23;;
3293;SDS011;1659;51.470;6.770;2022-08-21T06:52:11;9.00;;;8.10;;
3293;SDS011;1659;51.470;6.770;2022-08-21T06:54:39;14.37;;;9.80;;
3293;SDS011;1659;51.470;6.770;2022-08-21T06:57:06;16.17;;;8.77;;
3293;SDS011;1659;51.470;6.770;2022-08-21T06:59:33;11.90;;;8.60;;
3293;SDS011;1659;51.470;6.770;2022-08-21T07:02:00;16.60;;;7.67;;
3293;SDS011;1659;51.470;6.770;2022-08-21T07:04:28;11.23;;;8.00;;
3293;SDS011;1659;51.470;6.770;2022-08-21T07:06:55;13.33;;;8.13;;
3293;SDS011;1659;51.470;6.770;2022-08-21T07:09:21;13.20;;;7.83;;
3293;SDS011;1659;51.470;6.770;2022-08-21T07:11:49;9.53;;;7.70;;
3293;SDS011;1659;51.470;6.770;2022-08-21T07:14:18;10.77;;;7.93;;
3293;SDS011;1659;51.470;6.770;2022-08-21T07:16:45;15.23;;;8.60;;
3293;SDS011;1659;51.470;6.770;2022-08-21T07:19:11;7.87;;;6.63;;
3293;SDS011;1659;51.470;6.770;2022-08-21T07:21:39;9.13;;;6.60;;
3293;SDS011;1659;51.470;6.770;2022-08-21T07:24:06;8.07;;;5.83;;
3293;SDS011;1659;51.470;6.770;2022-08-21T07:26:33;9.03;;;5.90;;
3293;SDS011;1659;51.470;6.770;2022-08-21T07:29:00;11.23;;;5.53;;
3293;SDS011;1659;51.470;6.770;2022-08-21T07:31:27;10.67;;;6.97;;
3293;SDS011;1659;51.470;6.770;2022-08-21T07:33:54;8.20;;;5.07;;
3293;SDS011;1659;51.470;6.770;2022-08-21T07:36:22;8.93;;;5.53;;
3293;SDS011;1659;51.470;6.770;2022-08-21T07:38:50;4.43;;;2.93;;
3293;SDS011;1659;51.470;6.770;2022-08-21T07:41:18;6.90;;;3.57;;
3293;SDS011;1659;51.470;6.770;2022-08-21T07:43:46;11.87;;;4.60;;
3293;SDS011;1659;51.470;6.770;2022-08-21T07:46:13;7.03;;;4.00;;
3293;SDS011;1659;51.470;6.770;2022-08-21T07:48:40;6.50;;;3.97;;
3293;SDS011;1659;51.470;6.770;2022-08-21T07:51:07;9.70;;;3.83;;
3293;SDS011;1659;51.470;6.770;2022-08-21T07:53:35;3.23;;;2.60;;
3293;SDS011;1659;51.470;6.770;2022-08-21T07:56:05;7.60;;;3.20;;
3293;SDS011;1659;51.470;6.770;2022-08-21T07:58:33;4.67;;;3.03;;
3293;SDS011;1659;51.470;6.770;2022-08-21T08:01:00;5.23;;;2.80;;
3293;SDS011;1659;51.470;6.770;2022-08-21T08:03:27;4.63;;;2.30;;
3293;SDS011;1659;51.470;6.770;2022-08-21T08:05:53;2.97;;;2.70;;
3293;SDS011;1659;51.470;6.770;2022-08-21T08:08:21;4.13;;;2.87;;
3293;SDS011;1659;51.470;6.770;2022-08-21T08:10:48;2.40;;;2.10;;
3293;SDS011;1659;51.470;6.770;2022-08-21T08:13:17;5.00;;;2.30;;
3293;SDS011;1659;51.470;6.770;2022-08-21T08:15:44;3.47;;;2.40;;
3293;SDS011;1659;51.470;6.770;2022-08-21T08:18:10;4.87;;;2.10;;
3293;SDS011;1659;51.470;6.770;2022-08-21T08:20:37;4.17;;;2.40;;
3293;SDS011;1659;51.470;6.770;2022-08-21T08:23:04;5.57;;;2.17;;
3293;SDS011;1659;51.470;6.770;2022-08-21T08:25:31;2.73;;;2.50;;
3293;SDS011;1659;51.470;6.770;2022-08-21T08:27:57;2.40;;;2.03;;
3293;SDS011;1659;51.470;6.770;2022-08-21T08:30:26;3.40;;;2.40;;
3293;SDS011;1659;51.470;6.770;2022-08-21T08:32:52;5.33;;;2.77;;
3293;SDS011;1659;51.470;6.770;2022-08-21T08:35:19;8.33;;;2.57;;
3293;SDS011;1659;51.470;6.770;2022-08-21T08:37:46;2.93;;;1.80;;
3293;SDS011;1659;51.470;6.770;2022-08-21T08:40:14;3.60;;;1.60;;
3293;SDS011;1659;51.470;6.770;2022-08-21T08:42:47;4.77;;;2.57;;
3293;SDS011;1659;51.470;6.770;2022-08-21T08:45:17;4.47;;;2.10;;
3293;SDS011;1659;51.470;6.770;2022-08-21T08:47:48;7.60;;;2.63;;
3293;SDS011;1659;51.470;6.770;2022-08-21T08:50:23;4.47;;;1.90;;
3293;SDS011;1659;51.470;6.770;2022-08-21T08:53:09;3.07;;;2.30;;
3293;SDS011;1659;51.470;6.770;2022-08-21T08:55:41;4.00;;;2.40;;
3293;SDS011;1659;51.470;6.770;2022-08-21T08:58:10;4.27;;;2.40;;
3293;SDS011;1659;51.470;6.770;2022-08-21T09:00:42;2.40;;;2.13;;
3293;SDS011;1659;51.470;6.770;2022-08-21T09:03:11;7.40;;;2.70;;
3293;SDS011;1659;51.470;6.770;2022-08-21T09:05:40;3.57;;;2.37;;
3293;SDS011;1659;51.470;6.770;2022-08-21T09:08:15;4.50;;;2.30;;
3293;SDS011;1659;51.470;6.770;2022-08-21T09:10:57;8.77;;;4.27;;
3293;SDS011;1659;51.470;6.770;2022-08-21T09:13:32;45.77;;;26.03;;
3293;SDS011;1659;51.470;6.770;2022-08-21T09:16:10;2.60;;;2.37;;
3293;SDS011;1659;51.470;6.770;2022-08-21T09:18:51;3.83;;;2.87;;
3293;SDS011;1659;51.470;6.770;2022-08-21T09:21:28;10.53;;;5.13;;
3293;SDS011;1659;51.470;6.770;2022-08-21T09:24:01;3.80;;;1.90;;
3293;SDS011;1659;51.470;6.770;2022-08-21T09:26:41;5.70;;;2.20;;
3293;SDS011;1659;51.470;6.770;2022-08-21T09:29:14;6.37;;;2.80;;
3293;SDS011;1659;51.470;6.770;2022-08-21T09:31:46;6.50;;;2.33;;
3293;SDS011;1659;51.470;6.770;2022-08-21T09:34:23;2.70;;;2.00;;
3293;SDS011;1659;51.470;6.770;2022-08-21T09:36:52;3.30;;;2.30;;
3293;SDS011;1659;51.470;6.770;2022-08-21T09:39:22;2.87;;;2.47;;
3293;SDS011;1659;51.470;6.770;2022-08-21T09:41:55;1.97;;;1.77;;
3293;SDS011;1659;51.470;6.770;2022-08-21T09:44:24;4.60;;;2.33;;
3293;SDS011;1659;51.470;6.770;2022-08-21T09:46:52;3.60;;;2.30;;
3293;SDS011;1659;51.470;6.770;2022-08-21T09:49:27;5.30;;;2.23;;
3293;SDS011;1659;51.470;6.770;2022-08-21T09:51:55;2.60;;;2.07;;
3293;SDS011;1659;51.470;6.770;2022-08-21T09:54:24;2.93;;;2.37;;
3293;SDS011;1659;51.470;6.770;2022-08-21T09:56:56;5.30;;;2.03;;
3293;SDS011;1659;51.470;6.770;2022-08-21T09:59:42;4.83;;;1.93;;
3293;SDS011;1659;51.470;6.770;2022-08-21T10:02:23;6.80;;;2.07;;
3293;SDS011;1659;51.470;6.770;2022-08-21T10:04:55;4.90;;;2.07;;
3293;SDS011;1659;51.470;6.770;2022-08-21T10:07:24;4.97;;;2.17;;
3293;SDS011;1659;51.470;6.770;2022-08-21T10:09:59;2.83;;;2.30;;
3293;SDS011;1659;51.470;6.770;2022-08-21T10:12:29;3.83;;;2.00;;
3293;SDS011;1659;51.470;6.770;2022-08-21T10:15:06;2.00;;;1.80;;
3293;SDS011;1659;51.470;6.770;2022-08-21T10:17:43;3.80;;;2.37;;
3293;SDS011;1659;51.470;6.770;2022-08-21T10:20:17;2.00;;;1.90;;
3293;SDS011;1659;51.470;6.770;2022-08-21T10:22:50;6.87;;;3.60;;
3293;SDS011;1659;51.470;6.770;2022-08-21T10:25:30;7.67;;;3.20;;
3293;SDS011;1659;51.470;6.770;2022-08-21T10:28:04;7.00;;;2.73;;
3293;SDS011;1659;51.470;6.770;2022-08-21T10:30:39;6.50;;;2.47;;
3293;SDS011;1659;51.470;6.770;2022-08-21T10:33:20;2.63;;;1.97;;
3293;SDS011;1659;51.470;6.770;2022-08-21T10:36:06;4.97;;;3.50;;
3293;SDS011;1659;51.470;6.770;2022-08-21T10:41:32;3.40;;;2.60;;
3293;SDS011;1659;51.470;6.770;2022-08-21T10:44:09;2.20;;;2.07;;
3293;SDS011;1659;51.470;6.770;2022-08-21T10:46:47;2.00;;;1.80;;
3293;SDS011;1659;51.470;6.770;2022-08-21T10:49:21;2.50;;;2.30;;
3293;SDS011;1659;51.470;6.770;2022-08-21T10:52:05;3.03;;;2.13;;
3293;SDS011;1659;51.470;6.770;2022-08-21T10:54:52;14.97;;;4.10;;
3293;SDS011;1659;51.470;6.770;2022-08-21T10:57:22;1.63;;;1.53;;
3293;SDS011;1659;51.470;6.770;2022-08-21T10:59:57;4.40;;;3.00;;
3293;SDS011;1659;51.470;6.770;2022-08-21T11:02:29;5.13;;;2.90;;
3293;SDS011;1659;51.470;6.770;2022-08-21T11:05:02;2.07;;;1.97;;
3293;SDS011;1659;51.470;6.770;2022-08-21T11:07:39;4.07;;;2.20;;
3293;SDS011;1659;51.470;6.770;2022-08-21T11:10:13;10.33;;;4.00;;
3293;SDS011;1659;51.470;6.770;2022-08-21T11:12:46;7.60;;;3.10;;
3293;SDS011;1659;51.470;6.770;2022-08-21T11:15:24;3.77;;;2.93;;
3293;SDS011;1659;51.470;6.770;2022-08-21T11:17:57;2.60;;;1.87;;
3293;SDS011;1659;51.470;6.770;2022-08-21T11:20:29;2.90;;;1.80;;
3293;SDS011;1659;51.470;6.770;2022-08-21T11:23:03;6.17;;;2.20;;
3293;SDS011;1659;51.470;6.770;2022-08-21T11:25:39;5.20;;;2.30;;
3293;SDS011;1659;51.470;6.770;2022-08-21T11:28:12;5.90;;;3.40;;
3293;SDS011;1659;51.470;6.770;2022-08-21T11:30:47;2.63;;;1.90;;
3293;SDS011;1659;51.470;6.770;2022-08-21T11:33:27;3.60;;;1.50;;
3293;SDS011;1659;51.470;6.770;2022-08-21T11:36:07;3.80;;;1.97;;
3293;SDS011;1659;51.470;6.770;2022-08-21T11:38:44;4.80;;;2.90;;
3293;SDS011;1659;51.470;6.770;2022-08-21T11:41:19;1.53;;;1.10;;
3293;SDS011;1659;51.470;6.770;2022-08-21T11:43:55;2.50;;;1.63;;
3293;SDS011;1659;51.470;6.770;2022-08-21T11:46:36;1.50;;;1.40;;
3293;SDS011;1659;51.470;6.770;2022-08-21T11:49:14;1.80;;;1.70;;
3293;SDS011;1659;51.470;6.770;2022-08-21T11:51:50;3.60;;;1.17;;
3293;SDS011;1659;51.470;6.770;2022-08-21T11:54:26;2.10;;;1.90;;
3293;SDS011;1659;51.470;6.770;2022-08-21T11:56:58;4.80;;;1.63;;
3293;SDS011;1659;51.470;6.770;2022-08-21T11:59:31;2.47;;;1.90;;
3293;SDS011;1659;51.470;6.770;2022-08-21T12:02:02;1.90;;;1.80;;
3293;SDS011;1659;51.470;6.770;2022-08-21T12:04:35;3.17;;;2.37;;
3293;SDS011;1659;51.470;6.770;2022-08-21T12:07:11;3.30;;;2.10;;
3293;SDS011;1659;51.470;6.770;2022-08-21T12:09:39;2.43;;;2.00;;
3293;SDS011;1659;51.470;6.770;2022-08-21T12:12:10;3.53;;;2.20;;
3293;SDS011;1659;51.470;6.770;2022-08-21T12:14:40;1.23;;;1.13;;
3293;SDS011;1659;51.470;6.770;2022-08-21T12:17:16;3.43;;;1.47;;
3293;SDS011;1659;51.470;6.770;2022-08-21T12:19:45;1.13;;;1.13;;
3293;SDS011;1659;51.470;6.770;2022-08-21T12:22:24;1.93;;;1.40;;
3293;SDS011;1659;51.470;6.770;2022-08-21T12:25:06;3.90;;;2.20;;
3293;SDS011;1659;51.470;6.770;2022-08-21T12:27:41;7.53;;;2.93;;
3293;SDS011;1659;51.470;6.770;2022-08-21T12:30:20;5.60;;;1.73;;
3293;SDS011;1659;51.470;6.770;2022-08-21T12:32:54;4.00;;;1.20;;
3293;SDS011;1659;51.470;6.770;2022-08-21T12:35:23;1.93;;;1.80;;
3293;SDS011;1659;51.470;6.770;2022-08-21T12:37:56;1.70;;;1.57;;
3293;SDS011;1659;51.470;6.770;2022-08-21T12:40:31;6.00;;;1.80;;
3293;SDS011;1659;51.470;6.770;2022-08-21T12:43:03;1.93;;;1.40;;
3293;SDS011;1659;51.470;6.770;2022-08-21T12:45:32;2.80;;;1.53;;
3293;SDS011;1659;51.470;6.770;2022-08-21T12:48:01;5.60;;;4.03;;
3293;SDS011;1659;51.470;6.770;2022-08-21T12:50:37;3.07;;;1.97;;
3293;SDS011;1659;51.470;6.770;2022-08-21T12:53:08;2.00;;;1.17;;
3293;SDS011;1659;51.470;6.770;2022-08-21T12:55:41;3.07;;;1.50;;
3293;SDS011;1659;51.470;6.770;2022-08-21T12:58:16;3.00;;;1.80;;
3293;SDS011;1659;51.470;6.770;2022-08-21T13:00:47;2.13;;;1.90;;
3293;SDS011;1659;51.470;6.770;2022-08-21T13:03:15;3.53;;;1.70;;
3293;SDS011;1659;51.470;6.770;2022-08-21T13:05:42;2.27;;;1.63;;
3293;SDS011;1659;51.470;6.770;2022-08-21T13:08:10;5.03;;;1.30;;
3293;SDS011;1659;51.470;6.770;2022-08-21T13:10:39;3.07;;;1.70;;
3293;SDS011;1659;51.470;6.770;2022-08-21T13:13:09;11.43;;;3.90;;
3293;SDS011;1659;51.470;6.770;2022-08-21T13:15:39;2.67;;;1.93;;
3293;SDS011;1659;51.470;6.770;2022-08-21T13:18:06;3.80;;;1.67;;
3293;SDS011;1659;51.470;6.770;2022-08-21T13:20:34;19.73;;;7.57;;
3293;SDS011;1659;51.470;6.770;2022-08-21T13:23:03;2.07;;;1.90;;
3293;SDS011;1659;51.470;6.770;2022-08-21T13:25:43;4.83;;;2.00;;
3293;SDS011;1659;51.470;6.770;2022-08-21T13:28:10;1.63;;;1.50;;
3293;SDS011;1659;51.470;6.770;2022-08-21T13:30:40;2.20;;;1.77;;
3293;SDS011;1659;51.470;6.770;2022-08-21T13:33:09;2.30;;;2.00;;
3293;SDS011;1659;51.470;6.770;2022-08-21T13:35:45;1.67;;;1.37;;
3293;SDS011;1659;51.470;6.770;2022-08-21T13:38:14;3.40;;;1.80;;
3293;SDS011;1659;51.470;6.770;2022-08-21T13:40:44;5.70;;;2.57;;
3293;SDS011;1659;51.470;6.770;2022-08-21T13:43:15;3.50;;;1.73;;
3293;SDS011;1659;51.470;6.770;2022-08-21T13:45:47;2.70;;;2.23;;
3293;SDS011;1659;51.470;6.770;2022-08-21T13:48:15;3.03;;;1.67;;
3293;SDS011;1659;51.470;6.770;2022-08-21T13:50:43;1.70;;;1.37;;
3293;SDS011;1659;51.470;6.770;2022-08-21T13:53:20;3.23;;;1.90;;
3293;SDS011;1659;51.470;6.770;2022-08-21T13:55:50;3.70;;;2.33;;
3293;SDS011;1659;51.470;6.770;2022-08-21T13:58:24;2.67;;;1.90;;
3293;SDS011;1659;51.470;6.770;2022-08-21T14:00:51;2.13;;;1.50;;
3293;SDS011;1659;51.470;6.770;2022-08-21T14:03:25;1.83;;;1.77;;
3293;SDS011;1659;51.470;6.770;2022-08-21T14:05:56;4.33;;;2.10;;
3293;SDS011;1659;51.470;6.770;2022-08-21T14:08:24;1.93;;;1.83;;
3293;SDS011;1659;51.470;6.770;2022-08-21T14:10:58;3.30;;;2.00;;
3293;SDS011;1659;51.470;6.770;2022-08-21T14:13:34;2.00;;;1.90;;
3293;SDS011;1659;51.470;6.770;2022-08-21T14:16:10;3.30;;;1.60;;
3293;SDS011;1659;51.470;6.770;2022-08-21T14:18:43;4.80;;;1.80;;
3293;SDS011;1659;51.470;6.770;2022-08-21T14:21:31;2.03;;;1.80;;
3293;SDS011;1659;51.470;6.770;2022-08-21T14:24:03;4.90;;;2.37;;
3293;SDS011;1659;51.470;6.770;2022-08-21T14:26:37;4.17;;;1.90;;
3293;SDS011;1659;51.470;6.770;2022-08-21T14:29:11;2.40;;;2.23;;
3293;SDS011;1659;51.470;6.770;2022-08-21T14:31:40;5.40;;;2.17;;
3293;SDS011;1659;51.470;6.770;2022-08-21T14:34:07;3.17;;;1.67;;
3293;SDS011;1659;51.470;6.770;2022-08-21T14:36:36;3.13;;;1.80;;
3293;SDS011;1659;51.470;6.770;2022-08-21T14:39:02;6.07;;;2.43;;
3293;SDS011;1659;51.470;6.770;2022-08-21T14:41:29;2.50;;;2.23;;
3293;SDS011;1659;51.470;6.770;2022-08-21T14:43:57;5.20;;;1.90;;
3293;SDS011;1659;51.470;6.770;2022-08-21T14:46:25;3.17;;;1.90;;
3293;SDS011;1659;51.470;6.770;2022-08-21T14:48:53;3.80;;;2.00;;
3293;SDS011;1659;51.470;6.770;2022-08-21T14:51:19;2.40;;;1.83;;
3293;SDS011;1659;51.470;6.770;2022-08-21T14:53:46;2.10;;;1.90;;
3293;SDS011;1659;51.470;6.770;2022-08-21T14:56:13;7.83;;;3.27;;
3293;SDS011;1659;51.470;6.770;2022-08-21T14:58:41;2.63;;;2.43;;
3293;SDS011;1659;51.470;6.770;2022-08-21T15:01:12;3.10;;;1.80;;
3293;SDS011;1659;51.470;6.770;2022-08-21T15:03:40;4.27;;;2.07;;
3293;SDS011;1659;51.470;6.770;2022-08-21T15:06:07;1.93;;;1.63;;
3293;SDS011;1659;51.470;6.770;2022-08-21T15:08:34;1.70;;;1.50;;
3293;SDS011;1659;51.470;6.770;2022-08-21T15:11:01;8.90;;;2.00;;
3293;SDS011;1659;51.470;6.770;2022-08-21T15:13:29;1.83;;;1.60;;
3293;SDS011;1659;51.470;6.770;2022-08-21T15:15:56;4.20;;;1.80;;
3293;SDS011;1659;51.470;6.770;2022-08-21T15:18:26;3.80;;;2.57;;
3293;SDS011;1659;51.470;6.770;2022-08-21T15:20:53;4.97;;;4.47;;